sensor_id;sensor_type;location;lat;lon;timestamp;P1;durP1;ratioP1;P2;durP2;ratioP2
60700;SDS011;46541;49.894;10.886;2022-10-16T00:00:54;2.88;;;1.65;;
60700;SDS011;46541;49.894;10.886;2022-10-16T00:03:21;2.53;;;1.83;;
60700;SDS011;46541;49.894;10.886;2022-10-16T00:05:58;5.70;;;1.67;;
60700;SDS011;46541;49.894;10.886;2022-10-16T00:08:26;4.28;;;1.48;;
60700;SDS011;46541;49.894;10.886;2022-10-16T00:10:58;8.07;;;2.20;;
60700;SDS011;46541;49.894;10.886;2022-10-16T00:13:30;5.13;;;2.33;;
60700;SDS011;46541;49.894;10.886;2022-10-16T00:15:58;2.08;;;1.80;;
60700;SDS011;46541;49.894;10.886;2022-10-16T00:18:26;2.95;;;1.90;;
60700;SDS011;46541;49.894;10.886;2022-10-16T00:20:54;3.35;;;2.00;;
60700;SDS011;46541;49.894;10.886;2022-10-16T00:23:26;2.80;;;1.98;;
60700;SDS011;46541;49.894;10.886;2022-10-16T00:25:56;2.95;;;1.90;;
60700;SDS011;46541;49.894;10.886;2022-10-16T00:28:24;3.65;;;1.80;;
60700;SDS011;46541;49.894;10.886;2022-10-16T00:30:51;2.80;;;1.80;;
60700;SDS011;46541;49.894;10.886;2022-10-16T00:33:19;3.70;;;2.45;;
60700;SDS011;46541;49.894;10.886;2022-10-16T00:35:46;4.55;;;2.17;;
60700;SDS011;46541;49.894;10.886;2022-10-16T00:38:12;4.25;;;2.03;;
60700;SDS011;46541;49.894;10.886;2022-10-16T00:40:39;10.45;;;1.98;;
60700;SDS011;46541;49.894;10.886;2022-10-16T00:43:14;7.00;;;1.90;;
60700;SDS011;46541;49.894;10.886;2022-10-16T00:45:59;3.28;;;2.00;;
60700;SDS011;46541;49.894;10.886;2022-10-16T00:48:27;3.45;;;2.00;;
60700;SDS011;46541;49.894;10.886;2022-10-16T00:50:55;2.83;;;1.90;;
60700;SDS011;46541;49.894;10.886;2022-10-16T00:53:23;2.65;;;1.70;;
60700;SDS011;46541;49.894;10.886;2022-10-16T00:55:51;1.98;;;1.33;;
60700;SDS011;46541;49.894;10.886;2022-10-16T00:58:18;5.80;;;1.65;;
60700;SDS011;46541;49.894;10.886;2022-10-16T01:00:46;3.13;;;1.50;;
60700;SDS011;46541;49.894;10.886;2022-10-16T01:03:26;3.25;;;1.67;;
60700;SDS011;46541;49.894;10.886;2022-10-16T01:06:06;1.75;;;1.45;;
60700;SDS011;46541;49.894;10.886;2022-10-16T01:11:12;3.45;;;1.60;;
60700;SDS011;46541;49.894;10.886;2022-10-16T01:13:42;4.63;;;1.50;;
60700;SDS011;46541;49.894;10.886;2022-10-16T01:16:20;4.85;;;1.70;;
60700;SDS011;46541;49.894;10.886;2022-10-16T01:19:02;4.75;;;1.60;;
60700;SDS011;46541;49.894;10.886;2022-10-16T01:21:46;6.75;;;1.48;;
60700;SDS011;46541;49.894;10.886;2022-10-16T01:24:31;3.30;;;1.42;;
60700;SDS011;46541;49.894;10.886;2022-10-16T01:27:09;2.15;;;1.08;;
60700;SDS011;46541;49.894;10.886;2022-10-16T01:29:58;3.35;;;1.77;;
60700;SDS011;46541;49.894;10.886;2022-10-16T01:32:55;5.25;;;1.42;;
60700;SDS011;46541;49.894;10.886;2022-10-16T01:35:53;5.53;;;1.60;;
60700;SDS011;46541;49.894;10.886;2022-10-16T01:38:26;6.90;;;1.60;;
60700;SDS011;46541;49.894;10.886;2022-10-16T01:41:21;3.05;;;1.73;;
60700;SDS011;46541;49.894;10.886;2022-10-16T01:43:47;4.22;;;1.63;;
60700;SDS011;46541;49.894;10.886;2022-10-16T01:46:19;1.98;;;1.20;;
60700;SDS011;46541;49.894;10.886;2022-10-16T01:48:48;4.22;;;1.33;;
60700;SDS011;46541;49.894;10.886;2022-10-16T01:51:17;2.08;;;1.17;;
60700;SDS011;46541;49.894;10.886;2022-10-16T01:53:48;6.57;;;2.08;;
60700;SDS011;46541;49.894;10.886;2022-10-16T01:56:19;2.53;;;1.35;;
60700;SDS011;46541;49.894;10.886;2022-10-16T01:58:58;2.65;;;1.58;;
60700;SDS011;46541;49.894;10.886;2022-10-16T02:01:36;3.08;;;1.27;;
60700;SDS011;46541;49.894;10.886;2022-10-16T02:04:13;3.50;;;1.60;;
60700;SDS011;46541;49.894;10.886;2022-10-16T02:06:44;3.42;;;1.45;;
60700;SDS011;46541;49.894;10.886;2022-10-16T02:09:11;2.15;;;1.30;;
60700;SDS011;46541;49.894;10.886;2022-10-16T02:11:38;4.05;;;1.65;;
60700;SDS011;46541;49.894;10.886;2022-10-16T02:14:05;4.03;;;1.30;;
60700;SDS011;46541;49.894;10.886;2022-10-16T02:16:37;5.32;;;1.50;;
60700;SDS011;46541;49.894;10.886;2022-10-16T02:19:08;3.35;;;1.50;;
60700;SDS011;46541;49.894;10.886;2022-10-16T02:21:54;3.05;;;1.50;;
60700;SDS011;46541;49.894;10.886;2022-10-16T02:27:12;3.17;;;1.63;;
60700;SDS011;46541;49.894;10.886;2022-10-16T02:29:55;2.00;;;1.58;;
60700;SDS011;46541;49.894;10.886;2022-10-16T02:32:28;1.85;;;1.50;;
60700;SDS011;46541;49.894;10.886;2022-10-16T02:34:57;1.83;;;1.38;;
60700;SDS011;46541;49.894;10.886;2022-10-16T02:37:26;1.90;;;1.33;;
60700;SDS011;46541;49.894;10.886;2022-10-16T02:39:55;2.25;;;1.65;;
60700;SDS011;46541;49.894;10.886;2022-10-16T02:42:33;6.43;;;1.52;;
60700;SDS011;46541;49.894;10.886;2022-10-16T02:45:02;1.85;;;1.27;;
60700;SDS011;46541;49.894;10.886;2022-10-16T02:47:30;7.70;;;1.67;;
60700;SDS011;46541;49.894;10.886;2022-10-16T02:49:56;3.80;;;1.58;;
60700;SDS011;46541;49.894;10.886;2022-10-16T02:52:23;1.55;;;1.38;;
60700;SDS011;46541;49.894;10.886;2022-10-16T02:54:50;3.33;;;1.50;;
60700;SDS011;46541;49.894;10.886;2022-10-16T02:57:17;2.17;;;1.45;;
60700;SDS011;46541;49.894;10.886;2022-10-16T02:59:44;3.25;;;1.73;;
60700;SDS011;46541;49.894;10.886;2022-10-16T03:02:11;3.22;;;1.30;;
60700;SDS011;46541;49.894;10.886;2022-10-16T03:04:38;4.25;;;1.38;;
60700;SDS011;46541;49.894;10.886;2022-10-16T03:07:05;2.00;;;1.38;;
60700;SDS011;46541;49.894;10.886;2022-10-16T03:09:32;1.63;;;1.27;;
60700;SDS011;46541;49.894;10.886;2022-10-16T03:11:58;4.22;;;1.80;;
60700;SDS011;46541;49.894;10.886;2022-10-16T03:14:25;4.10;;;1.30;;
60700;SDS011;46541;49.894;10.886;2022-10-16T03:16:57;4.35;;;1.35;;
60700;SDS011;46541;49.894;10.886;2022-10-16T03:19:23;6.95;;;1.80;;
60700;SDS011;46541;49.894;10.886;2022-10-16T03:21:50;2.88;;;1.35;;
60700;SDS011;46541;49.894;10.886;2022-10-16T03:24:17;2.80;;;1.30;;
60700;SDS011;46541;49.894;10.886;2022-10-16T03:26:44;4.50;;;1.48;;
60700;SDS011;46541;49.894;10.886;2022-10-16T03:29:10;3.40;;;1.65;;
60700;SDS011;46541;49.894;10.886;2022-10-16T03:31:37;8.70;;;1.67;;
60700;SDS011;46541;49.894;10.886;2022-10-16T03:34:04;2.78;;;1.20;;
60700;SDS011;46541;49.894;10.886;2022-10-16T03:36:30;3.45;;;1.38;;
60700;SDS011;46541;49.894;10.886;2022-10-16T03:38:57;2.17;;;0.80;;
60700;SDS011;46541;49.894;10.886;2022-10-16T03:41:24;3.65;;;1.50;;
60700;SDS011;46541;49.894;10.886;2022-10-16T03:43:51;2.17;;;1.23;;
60700;SDS011;46541;49.894;10.886;2022-10-16T03:46:17;3.00;;;1.58;;
60700;SDS011;46541;49.894;10.886;2022-10-16T03:48:44;5.82;;;3.45;;
60700;SDS011;46541;49.894;10.886;2022-10-16T03:51:11;9.45;;;2.13;;
60700;SDS011;46541;49.894;10.886;2022-10-16T03:53:38;3.25;;;2.10;;
60700;SDS011;46541;49.894;10.886;2022-10-16T03:56:05;7.03;;;4.20;;
60700;SDS011;46541;49.894;10.886;2022-10-16T03:58:32;5.15;;;2.65;;
60700;SDS011;46541;49.894;10.886;2022-10-16T04:00:58;6.47;;;2.60;;
60700;SDS011;46541;49.894;10.886;2022-10-16T04:03:25;5.57;;;1.65;;
60700;SDS011;46541;49.894;10.886;2022-10-16T04:05:52;4.60;;;1.80;;
60700;SDS011;46541;49.894;10.886;2022-10-16T04:08:19;5.75;;;2.13;;
60700;SDS011;46541;49.894;10.886;2022-10-16T04:10:46;9.23;;;6.22;;
60700;SDS011;46541;49.894;10.886;2022-10-16T04:13:14;7.95;;;5.75;;
60700;SDS011;46541;49.894;10.886;2022-10-16T04:15:42;12.45;;;6.40;;
60700;SDS011;46541;49.894;10.886;2022-10-16T04:18:10;7.93;;;3.45;;
60700;SDS011;46541;49.894;10.886;2022-10-16T04:20:37;4.13;;;2.80;;
60700;SDS011;46541;49.894;10.886;2022-10-16T04:23:04;5.80;;;2.72;;
60700;SDS011;46541;49.894;10.886;2022-10-16T04:25:31;12.75;;;2.58;;
60700;SDS011;46541;49.894;10.886;2022-10-16T04:27:57;3.83;;;2.38;;
60700;SDS011;46541;49.894;10.886;2022-10-16T04:30:24;5.50;;;2.13;;
60700;SDS011;46541;49.894;10.886;2022-10-16T04:32:51;2.85;;;1.65;;
60700;SDS011;46541;49.894;10.886;2022-10-16T04:35:19;4.55;;;1.33;;
60700;SDS011;46541;49.894;10.886;2022-10-16T04:37:47;3.22;;;1.63;;
60700;SDS011;46541;49.894;10.886;2022-10-16T04:40:14;3.92;;;1.90;;
60700;SDS011;46541;49.894;10.886;2022-10-16T04:42:40;2.30;;;1.33;;
60700;SDS011;46541;49.894;10.886;2022-10-16T04:45:07;7.10;;;3.03;;
60700;SDS011;46541;49.894;10.886;2022-10-16T04:47:39;3.10;;;2.05;;
60700;SDS011;46541;49.894;10.886;2022-10-16T04:50:06;7.15;;;3.22;;
60700;SDS011;46541;49.894;10.886;2022-10-16T04:52:34;9.98;;;5.63;;
60700;SDS011;46541;49.894;10.886;2022-10-16T04:55:05;7.40;;;2.63;;
60700;SDS011;46541;49.894;10.886;2022-10-16T04:57:33;8.00;;;3.72;;
60700;SDS011;46541;49.894;10.886;2022-10-16T05:00:00;5.47;;;3.33;;
60700;SDS011;46541;49.894;10.886;2022-10-16T05:02:27;3.83;;;2.63;;
60700;SDS011;46541;49.894;10.886;2022-10-16T05:04:53;5.97;;;2.45;;
60700;SDS011;46541;49.894;10.886;2022-10-16T05:07:20;3.90;;;2.35;;
60700;SDS011;46541;49.894;10.886;2022-10-16T05:09:47;5.38;;;2.35;;
60700;SDS011;46541;49.894;10.886;2022-10-16T05:12:14;3.95;;;2.20;;
60700;SDS011;46541;49.894;10.886;2022-10-16T05:14:40;2.53;;;1.48;;
60700;SDS011;46541;49.894;10.886;2022-10-16T05:17:07;5.75;;;1.98;;
60700;SDS011;46541;49.894;10.886;2022-10-16T05:19:34;6.15;;;2.17;;
60700;SDS011;46541;49.894;10.886;2022-10-16T05:22:01;8.85;;;2.40;;
60700;SDS011;46541;49.894;10.886;2022-10-16T05:24:28;5.22;;;2.05;;
60700;SDS011;46541;49.894;10.886;2022-10-16T05:26:54;3.25;;;1.88;;
60700;SDS011;46541;49.894;10.886;2022-10-16T05:29:21;3.80;;;1.90;;
60700;SDS011;46541;49.894;10.886;2022-10-16T05:31:50;4.20;;;1.85;;
60700;SDS011;46541;49.894;10.886;2022-10-16T05:34:18;2.10;;;1.60;;
60700;SDS011;46541;49.894;10.886;2022-10-16T05:36:45;2.83;;;1.70;;
60700;SDS011;46541;49.894;10.886;2022-10-16T05:39:13;2.67;;;1.80;;
60700;SDS011;46541;49.894;10.886;2022-10-16T05:41:41;9.80;;;2.00;;
60700;SDS011;46541;49.894;10.886;2022-10-16T05:44:08;8.45;;;1.90;;
60700;SDS011;46541;49.894;10.886;2022-10-16T05:46:35;6.95;;;2.22;;
60700;SDS011;46541;49.894;10.886;2022-10-16T05:49:02;7.97;;;4.00;;
60700;SDS011;46541;49.894;10.886;2022-10-16T05:51:29;10.48;;;3.38;;
60700;SDS011;46541;49.894;10.886;2022-10-16T05:53:55;9.98;;;6.22;;
60700;SDS011;46541;49.894;10.886;2022-10-16T05:56:22;7.07;;;4.82;;
60700;SDS011;46541;49.894;10.886;2022-10-16T05:58:49;7.78;;;4.18;;
60700;SDS011;46541;49.894;10.886;2022-10-16T06:01:17;4.43;;;2.75;;
60700;SDS011;46541;49.894;10.886;2022-10-16T06:03:44;8.45;;;2.05;;
60700;SDS011;46541;49.894;10.886;2022-10-16T06:06:15;3.10;;;2.20;;
60700;SDS011;46541;49.894;10.886;2022-10-16T06:08:44;4.15;;;1.77;;
60700;SDS011;46541;49.894;10.886;2022-10-16T06:11:13;7.25;;;2.42;;
60700;SDS011;46541;49.894;10.886;2022-10-16T06:13:52;5.10;;;1.30;;
60700;SDS011;46541;49.894;10.886;2022-10-16T06:16:23;2.22;;;1.80;;
60700;SDS011;46541;49.894;10.886;2022-10-16T06:18:51;5.10;;;1.55;;
60700;SDS011;46541;49.894;10.886;2022-10-16T06:21:20;4.72;;;1.80;;
60700;SDS011;46541;49.894;10.886;2022-10-16T06:23:50;3.03;;;1.77;;
60700;SDS011;46541;49.894;10.886;2022-10-16T06:26:19;7.18;;;2.20;;
60700;SDS011;46541;49.894;10.886;2022-10-16T06:28:47;6.35;;;2.13;;
60700;SDS011;46541;49.894;10.886;2022-10-16T06:31:14;6.07;;;1.80;;
60700;SDS011;46541;49.894;10.886;2022-10-16T06:33:42;2.92;;;2.05;;
60700;SDS011;46541;49.894;10.886;2022-10-16T06:36:10;6.50;;;1.65;;
60700;SDS011;46541;49.894;10.886;2022-10-16T06:38:39;4.68;;;2.58;;
60700;SDS011;46541;49.894;10.886;2022-10-16T06:41:06;6.68;;;1.90;;
60700;SDS011;46541;49.894;10.886;2022-10-16T06:43:35;13.25;;;4.40;;
60700;SDS011;46541;49.894;10.886;2022-10-16T06:46:02;7.07;;;3.95;;
60700;SDS011;46541;49.894;10.886;2022-10-16T06:48:30;8.45;;;4.18;;
60700;SDS011;46541;49.894;10.886;2022-10-16T06:51:08;10.73;;;4.18;;
60700;SDS011;46541;49.894;10.886;2022-10-16T06:53:38;5.93;;;2.83;;
60700;SDS011;46541;49.894;10.886;2022-10-16T06:56:27;5.18;;;2.10;;
60700;SDS011;46541;49.894;10.886;2022-10-16T06:58:57;5.10;;;2.15;;
60700;SDS011;46541;49.894;10.886;2022-10-16T07:01:24;3.65;;;2.28;;
60700;SDS011;46541;49.894;10.886;2022-10-16T07:03:52;9.48;;;1.90;;
60700;SDS011;46541;49.894;10.886;2022-10-16T07:06:20;4.53;;;2.05;;
60700;SDS011;46541;49.894;10.886;2022-10-16T07:08:48;7.60;;;2.58;;
60700;SDS011;46541;49.894;10.886;2022-10-16T07:11:16;2.80;;;1.67;;
60700;SDS011;46541;49.894;10.886;2022-10-16T07:13:45;5.05;;;2.20;;
60700;SDS011;46541;49.894;10.886;2022-10-16T07:16:20;6.50;;;2.40;;
60700;SDS011;46541;49.894;10.886;2022-10-16T07:18:49;3.70;;;1.83;;
60700;SDS011;46541;49.894;10.886;2022-10-16T07:21:21;8.52;;;1.80;;
60700;SDS011;46541;49.894;10.886;2022-10-16T07:23:52;2.13;;;1.60;;
60700;SDS011;46541;49.894;10.886;2022-10-16T07:26:20;4.15;;;1.70;;
60700;SDS011;46541;49.894;10.886;2022-10-16T07:28:47;3.70;;;1.55;;
60700;SDS011;46541;49.894;10.886;2022-10-16T07:31:15;3.45;;;1.70;;
60700;SDS011;46541;49.894;10.886;2022-10-16T07:33:43;3.65;;;1.70;;
60700;SDS011;46541;49.894;10.886;2022-10-16T07:36:11;4.57;;;1.65;;
60700;SDS011;46541;49.894;10.886;2022-10-16T07:38:42;6.53;;;1.85;;
60700;SDS011;46541;49.894;10.886;2022-10-16T07:41:10;7.07;;;2.17;;
60700;SDS011;46541;49.894;10.886;2022-10-16T07:43:39;2.67;;;2.03;;
60700;SDS011;46541;49.894;10.886;2022-10-16T07:46:06;3.70;;;1.80;;
60700;SDS011;46541;49.894;10.886;2022-10-16T07:48:33;4.18;;;2.03;;
60700;SDS011;46541;49.894;10.886;2022-10-16T07:51:02;6.50;;;2.22;;
60700;SDS011;46541;49.894;10.886;2022-10-16T07:53:30;5.47;;;2.38;;
60700;SDS011;46541;49.894;10.886;2022-10-16T07:56:00;7.30;;;2.03;;
60700;SDS011;46541;49.894;10.886;2022-10-16T07:58:28;5.35;;;1.80;;
60700;SDS011;46541;49.894;10.886;2022-10-16T08:00:56;3.22;;;1.90;;
60700;SDS011;46541;49.894;10.886;2022-10-16T08:03:23;3.20;;;1.85;;
60700;SDS011;46541;49.894;10.886;2022-10-16T08:05:50;2.55;;;1.73;;
60700;SDS011;46541;49.894;10.886;2022-10-16T08:08:18;3.55;;;2.10;;
60700;SDS011;46541;49.894;10.886;2022-10-16T08:10:46;3.58;;;2.10;;
60700;SDS011;46541;49.894;10.886;2022-10-16T08:13:12;5.72;;;1.95;;
60700;SDS011;46541;49.894;10.886;2022-10-16T08:15:42;3.17;;;1.90;;
60700;SDS011;46541;49.894;10.886;2022-10-16T08:18:10;4.63;;;2.20;;
60700;SDS011;46541;49.894;10.886;2022-10-16T08:20:38;4.95;;;2.13;;
60700;SDS011;46541;49.894;10.886;2022-10-16T08:23:05;6.47;;;2.08;;
60700;SDS011;46541;49.894;10.886;2022-10-16T08:25:36;5.75;;;3.05;;
60700;SDS011;46541;49.894;10.886;2022-10-16T08:28:04;7.68;;;5.20;;
60700;SDS011;46541;49.894;10.886;2022-10-16T08:30:31;6.72;;;3.33;;
60700;SDS011;46541;49.894;10.886;2022-10-16T08:32:58;5.55;;;3.47;;
60700;SDS011;46541;49.894;10.886;2022-10-16T08:35:25;7.57;;;5.72;;
60700;SDS011;46541;49.894;10.886;2022-10-16T08:37:52;7.38;;;3.22;;
60700;SDS011;46541;49.894;10.886;2022-10-16T08:40:20;4.63;;;3.28;;
60700;SDS011;46541;49.894;10.886;2022-10-16T08:45:58;6.85;;;2.45;;
60700;SDS011;46541;49.894;10.886;2022-10-16T08:51:04;5.38;;;3.17;;
60700;SDS011;46541;49.894;10.886;2022-10-16T08:54:21;3.97;;;1.90;;
60700;SDS011;46541;49.894;10.886;2022-10-16T08:56:23;6.93;;;2.63;;
60700;SDS011;46541;49.894;10.886;2022-10-16T08:58:51;4.45;;;2.50;;
60700;SDS011;46541;49.894;10.886;2022-10-16T09:01:45;6.13;;;2.33;;
60700;SDS011;46541;49.894;10.886;2022-10-16T09:07:09;11.27;;;5.00;;
60700;SDS011;46541;49.894;10.886;2022-10-16T09:12:40;7.82;;;2.65;;
60700;SDS011;46541;49.894;10.886;2022-10-16T09:21:27;2.92;;;2.30;;
60700;SDS011;46541;49.894;10.886;2022-10-16T09:24:23;5.07;;;3.07;;
60700;SDS011;46541;49.894;10.886;2022-10-16T09:26:54;3.22;;;2.53;;
60700;SDS011;46541;49.894;10.886;2022-10-16T09:29:21;2.50;;;1.80;;
60700;SDS011;46541;49.894;10.886;2022-10-16T09:31:51;5.18;;;2.38;;
60700;SDS011;46541;49.894;10.886;2022-10-16T09:34:30;5.95;;;2.42;;
60700;SDS011;46541;49.894;10.886;2022-10-16T09:36:59;3.00;;;1.80;;
60700;SDS011;46541;49.894;10.886;2022-10-16T09:39:30;6.10;;;2.05;;
60700;SDS011;46541;49.894;10.886;2022-10-16T09:41:56;3.67;;;1.77;;
60700;SDS011;46541;49.894;10.886;2022-10-16T09:44:24;5.70;;;1.88;;
60700;SDS011;46541;49.894;10.886;2022-10-16T09:47:05;4.28;;;1.73;;
60700;SDS011;46541;49.894;10.886;2022-10-16T09:49:50;4.15;;;1.70;;
60700;SDS011;46541;49.894;10.886;2022-10-16T09:52:18;4.30;;;2.05;;
60700;SDS011;46541;49.894;10.886;2022-10-16T09:54:52;2.65;;;1.55;;
60700;SDS011;46541;49.894;10.886;2022-10-16T09:57:20;3.88;;;2.00;;
60700;SDS011;46541;49.894;10.886;2022-10-16T09:59:49;2.00;;;1.70;;
60700;SDS011;46541;49.894;10.886;2022-10-16T10:02:36;3.80;;;1.67;;
60700;SDS011;46541;49.894;10.886;2022-10-16T10:05:04;3.92;;;2.03;;
60700;SDS011;46541;49.894;10.886;2022-10-16T10:07:43;7.65;;;2.33;;
60700;SDS011;46541;49.894;10.886;2022-10-16T10:10:30;4.97;;;2.45;;
60700;SDS011;46541;49.894;10.886;2022-10-16T10:12:59;5.22;;;2.00;;
60700;SDS011;46541;49.894;10.886;2022-10-16T10:15:26;2.42;;;1.55;;
60700;SDS011;46541;49.894;10.886;2022-10-16T10:17:59;6.57;;;4.70;;
60700;SDS011;46541;49.894;10.886;2022-10-16T10:22:55;11.48;;;7.13;;
60700;SDS011;46541;49.894;10.886;2022-10-16T10:31:17;3.17;;;1.88;;
60700;SDS011;46541;49.894;10.886;2022-10-16T10:33:57;8.70;;;3.35;;
60700;SDS011;46541;49.894;10.886;2022-10-16T10:36:45;5.22;;;2.38;;
60700;SDS011;46541;49.894;10.886;2022-10-16T10:39:32;4.47;;;2.20;;
60700;SDS011;46541;49.894;10.886;2022-10-16T10:48:14;9.23;;;5.43;;
60700;SDS011;46541;49.894;10.886;2022-10-16T10:50:55;3.83;;;2.55;;
60700;SDS011;46541;49.894;10.886;2022-10-16T11:02:15;7.03;;;3.28;;
60700;SDS011;46541;49.894;10.886;2022-10-16T11:08:01;8.02;;;5.00;;
60700;SDS011;46541;49.894;10.886;2022-10-16T11:11:18;6.10;;;2.28;;
60700;SDS011;46541;49.894;10.886;2022-10-16T11:15:57;7.90;;;2.55;;
60700;SDS011;46541;49.894;10.886;2022-10-16T11:18:44;7.53;;;4.10;;
60700;SDS011;46541;49.894;10.886;2022-10-16T11:21:22;7.78;;;5.18;;
60700;SDS011;46541;49.894;10.886;2022-10-16T11:26:24;5.63;;;2.67;;
60700;SDS011;46541;49.894;10.886;2022-10-16T11:29:04;7.03;;;2.47;;
60700;SDS011;46541;49.894;10.886;2022-10-16T11:31:56;3.58;;;2.00;;
60700;SDS011;46541;49.894;10.886;2022-10-16T11:34:41;5.85;;;1.73;;
60700;SDS011;46541;49.894;10.886;2022-10-16T11:37:36;7.15;;;2.30;;
60700;SDS011;46541;49.894;10.886;2022-10-16T11:40:19;4.20;;;2.58;;
60700;SDS011;46541;49.894;10.886;2022-10-16T11:43:09;9.07;;;3.40;;
60700;SDS011;46541;49.894;10.886;2022-10-16T11:45:46;7.72;;;2.58;;
60700;SDS011;46541;49.894;10.886;2022-10-16T11:48:25;5.15;;;3.03;;
60700;SDS011;46541;49.894;10.886;2022-10-16T11:56:21;16.77;;;10.55;;
60700;SDS011;46541;49.894;10.886;2022-10-16T11:58:53;8.93;;;5.65;;
60700;SDS011;46541;49.894;10.886;2022-10-16T12:01:30;8.40;;;3.80;;
60700;SDS011;46541;49.894;10.886;2022-10-16T12:04:15;4.63;;;3.28;;
60700;SDS011;46541;49.894;10.886;2022-10-16T12:09:34;5.85;;;4.53;;
60700;SDS011;46541;49.894;10.886;2022-10-16T12:12:03;9.68;;;6.70;;
60700;SDS011;46541;49.894;10.886;2022-10-16T12:14:36;7.93;;;3.65;;
60700;SDS011;46541;49.894;10.886;2022-10-16T12:17:33;5.25;;;2.95;;
60700;SDS011;46541;49.894;10.886;2022-10-16T12:22:57;7.78;;;4.18;;
60700;SDS011;46541;49.894;10.886;2022-10-16T12:30:40;4.90;;;2.20;;
60700;SDS011;46541;49.894;10.886;2022-10-16T12:33:56;6.05;;;3.30;;
60700;SDS011;46541;49.894;10.886;2022-10-16T12:36:04;4.22;;;2.67;;
60700;SDS011;46541;49.894;10.886;2022-10-16T12:38:46;4.88;;;2.47;;
60700;SDS011;46541;49.894;10.886;2022-10-16T12:41:25;5.07;;;2.70;;
60700;SDS011;46541;49.894;10.886;2022-10-16T12:43:52;3.97;;;2.10;;
60700;SDS011;46541;49.894;10.886;2022-10-16T12:46:21;2.75;;;2.13;;
60700;SDS011;46541;49.894;10.886;2022-10-16T12:49:05;9.68;;;3.30;;
60700;SDS011;46541;49.894;10.886;2022-10-16T12:51:50;3.78;;;3.20;;
60700;SDS011;46541;49.894;10.886;2022-10-16T12:54:19;3.55;;;3.10;;
60700;SDS011;46541;49.894;10.886;2022-10-16T13:17:31;6.47;;;2.10;;
60700;SDS011;46541;49.894;10.886;2022-10-16T13:28:11;2.35;;;1.92;;
60700;SDS011;46541;49.894;10.886;2022-10-16T13:35:54;3.58;;;1.80;;
60700;SDS011;46541;49.894;10.886;2022-10-16T13:38:22;5.22;;;2.17;;
60700;SDS011;46541;49.894;10.886;2022-10-16T13:40:53;3.50;;;1.77;;
60700;SDS011;46541;49.894;10.886;2022-10-16T13:43:34;2.67;;;1.77;;
60700;SDS011;46541;49.894;10.886;2022-10-16T13:48:41;3.50;;;1.90;;
60700;SDS011;46541;49.894;10.886;2022-10-16T13:53:38;2.80;;;1.70;;
60700;SDS011;46541;49.894;10.886;2022-10-16T13:56:06;1.35;;;1.23;;
60700;SDS011;46541;49.894;10.886;2022-10-16T13:58:36;13.40;;;7.88;;
60700;SDS011;46541;49.894;10.886;2022-10-16T14:01:14;5.43;;;2.03;;
60700;SDS011;46541;49.894;10.886;2022-10-16T14:03:50;6.80;;;2.05;;
60700;SDS011;46541;49.894;10.886;2022-10-16T14:06:21;4.18;;;2.35;;
60700;SDS011;46541;49.894;10.886;2022-10-16T14:08:50;3.28;;;2.30;;
60700;SDS011;46541;49.894;10.886;2022-10-16T14:11:42;5.10;;;2.28;;
60700;SDS011;46541;49.894;10.886;2022-10-16T14:14:18;3.50;;;2.40;;
60700;SDS011;46541;49.894;10.886;2022-10-16T14:16:45;4.13;;;2.38;;
60700;SDS011;46541;49.894;10.886;2022-10-16T14:19:18;4.70;;;2.30;;
60700;SDS011;46541;49.894;10.886;2022-10-16T14:21:52;8.13;;;1.92;;
60700;SDS011;46541;49.894;10.886;2022-10-16T14:27:01;3.17;;;1.95;;
60700;SDS011;46541;49.894;10.886;2022-10-16T14:29:29;3.83;;;2.30;;
60700;SDS011;46541;49.894;10.886;2022-10-16T14:32:00;4.20;;;2.45;;
60700;SDS011;46541;49.894;10.886;2022-10-16T14:34:29;4.57;;;1.98;;
60700;SDS011;46541;49.894;10.886;2022-10-16T14:37:00;2.60;;;1.73;;
60700;SDS011;46541;49.894;10.886;2022-10-16T14:39:38;7.10;;;2.78;;
60700;SDS011;46541;49.894;10.886;2022-10-16T14:42:19;2.75;;;1.88;;
60700;SDS011;46541;49.894;10.886;2022-10-16T14:44:50;2.58;;;2.03;;
60700;SDS011;46541;49.894;10.886;2022-10-16T14:47:24;4.25;;;2.33;;
60700;SDS011;46541;49.894;10.886;2022-10-16T14:49:53;4.28;;;1.98;;
60700;SDS011;46541;49.894;10.886;2022-10-16T14:52:22;3.92;;;1.88;;
60700;SDS011;46541;49.894;10.886;2022-10-16T14:54:49;7.03;;;2.55;;
60700;SDS011;46541;49.894;10.886;2022-10-16T14:57:17;3.13;;;2.30;;
60700;SDS011;46541;49.894;10.886;2022-10-16T14:59:46;4.57;;;1.98;;
60700;SDS011;46541;49.894;10.886;2022-10-16T15:04:47;6.93;;;2.85;;
60700;SDS011;46541;49.894;10.886;2022-10-16T15:07:14;3.63;;;2.50;;
60700;SDS011;46541;49.894;10.886;2022-10-16T15:09:41;4.57;;;3.08;;
60700;SDS011;46541;49.894;10.886;2022-10-16T15:12:15;3.58;;;2.20;;
60700;SDS011;46541;49.894;10.886;2022-10-16T15:14:42;13.52;;;2.65;;
60700;SDS011;46541;49.894;10.886;2022-10-16T15:17:10;2.47;;;1.92;;
60700;SDS011;46541;49.894;10.886;2022-10-16T15:19:37;4.00;;;2.30;;
60700;SDS011;46541;49.894;10.886;2022-10-16T15:22:03;7.55;;;2.97;;
60700;SDS011;46541;49.894;10.886;2022-10-16T15:24:30;5.10;;;2.45;;
60700;SDS011;46541;49.894;10.886;2022-10-16T15:26:57;9.10;;;2.85;;
60700;SDS011;46541;49.894;10.886;2022-10-16T15:29:24;6.43;;;2.42;;
60700;SDS011;46541;49.894;10.886;2022-10-16T15:31:50;7.75;;;3.05;;
60700;SDS011;46541;49.894;10.886;2022-10-16T15:34:17;6.15;;;3.45;;
60700;SDS011;46541;49.894;10.886;2022-10-16T15:36:45;5.10;;;2.22;;
60700;SDS011;46541;49.894;10.886;2022-10-16T15:39:16;6.68;;;2.78;;
60700;SDS011;46541;49.894;10.886;2022-10-16T15:41:45;3.58;;;2.80;;
60700;SDS011;46541;49.894;10.886;2022-10-16T15:44:17;4.85;;;2.78;;
60700;SDS011;46541;49.894;10.886;2022-10-16T15:46:44;5.78;;;3.10;;
60700;SDS011;46541;49.894;10.886;2022-10-16T15:49:11;3.92;;;3.17;;
60700;SDS011;46541;49.894;10.886;2022-10-16T15:51:39;5.13;;;3.10;;
60700;SDS011;46541;49.894;10.886;2022-10-16T15:54:07;6.40;;;3.42;;
60700;SDS011;46541;49.894;10.886;2022-10-16T15:56:34;7.35;;;4.07;;
60700;SDS011;46541;49.894;10.886;2022-10-16T15:59:03;7.75;;;4.10;;
60700;SDS011;46541;49.894;10.886;2022-10-16T16:01:33;8.98;;;5.40;;
60700;SDS011;46541;49.894;10.886;2022-10-16T16:04:00;11.88;;;4.18;;
60700;SDS011;46541;49.894;10.886;2022-10-16T16:06:45;9.45;;;3.90;;
60700;SDS011;46541;49.894;10.886;2022-10-16T16:09:12;6.68;;;3.53;;
60700;SDS011;46541;49.894;10.886;2022-10-16T16:11:40;7.10;;;3.92;;
60700;SDS011;46541;49.894;10.886;2022-10-16T16:14:07;8.25;;;4.10;;
60700;SDS011;46541;49.894;10.886;2022-10-16T16:16:39;7.95;;;4.13;;
60700;SDS011;46541;49.894;10.886;2022-10-16T16:19:05;9.18;;;4.95;;
60700;SDS011;46541;49.894;10.886;2022-10-16T16:21:37;8.65;;;4.35;;
60700;SDS011;46541;49.894;10.886;2022-10-16T16:24:04;8.43;;;4.43;;
60700;SDS011;46541;49.894;10.886;2022-10-16T16:26:34;8.65;;;4.80;;
60700;SDS011;46541;49.894;10.886;2022-10-16T16:29:03;8.45;;;4.75;;
60700;SDS011;46541;49.894;10.886;2022-10-16T16:31:30;6.68;;;5.03;;
60700;SDS011;46541;49.894;10.886;2022-10-16T16:33:58;10.65;;;6.53;;
60700;SDS011;46541;49.894;10.886;2022-10-16T16:36:25;8.02;;;4.80;;
60700;SDS011;46541;49.894;10.886;2022-10-16T16:38:52;9.25;;;6.38;;
60700;SDS011;46541;49.894;10.886;2022-10-16T16:41:20;12.90;;;6.20;;
60700;SDS011;46541;49.894;10.886;2022-10-16T16:43:52;5.93;;;5.03;;
60700;SDS011;46541;49.894;10.886;2022-10-16T16:46:20;11.32;;;5.03;;
60700;SDS011;46541;49.894;10.886;2022-10-16T16:48:47;9.82;;;3.97;;
60700;SDS011;46541;49.894;10.886;2022-10-16T16:51:16;10.45;;;5.60;;